Overview Statistics Trail Chart Weather Telemetry Raw packets
 

This is the latest recevied weather packets stored in our database for station/object N6GPM. If no packets are shown the sender has not sent any weather packets the latest 10 day(s).

<< 107 108 109 110 111 112 113 >>
Time Temp. Humidity Pressure Rain* Wind** Luminosity Snow
1787867942 35° C 36% 1016.5 hPa 0 mm - 532 W/m² -
1787867638 35° C 39% 1016.8 hPa 0 mm - 504 W/m² -
1787867332 35° C 38% 1016.5 hPa 0 mm - 519 W/m² -
1787867028 34.44° C 38% 1016.6 hPa 0 mm - 485 W/m² -
1787866724 33.89° C 40% 1016.8 hPa 0 mm - 530 W/m² -
1787866422 34.44° C 40% 1016.7 hPa 0 mm - 533 W/m² -
1787866117 34.44° C 40% 1016.8 hPa 0 mm - 532 W/m² -
1787865817 35° C 40% 1016.9 hPa 0 mm - 500 W/m² -
1787865513 35° C 38% 1017 hPa 0 mm - 545 W/m² -
1787865207 35.56° C 38% 1017 hPa 0 mm - 616 W/m² -
1787864904 36.11° C 35% 1016.8 hPa 0 mm - 600 W/m² -
1787864598 36.11° C 32% 1016.7 hPa 0 mm - 698 W/m² -
1787864293 36.67° C 29% 1016.8 hPa 0 mm - 1006 W/m² -
1787863987 36.11° C 28% 1016.7 hPa 0 mm - 995 W/m² -
1787863686 36.11° C 26% 1016.8 hPa 0 mm - 742 W/m² -
1787863385 36.11° C 27% 1017 hPa 0 mm - 979 W/m² -
1787863081 35.56° C 27% 1017.2 hPa 0 mm - 753 W/m² -
1787862776 35.56° C 29% 1017.4 hPa 0 mm - 872 W/m² -
1787862475 35° C 30% 1017.4 hPa 0 mm - 1083 W/m² -
1787862170 35° C 30% 1017.4 hPa 0 mm - 657 W/m² -
1787861866 35° C 30% 1017.4 hPa 0 mm - 827 W/m² -
1787861565 35° C 30% 1017.4 hPa 0 mm - 460 W/m² -
1787861259 35° C 29% 1017.5 hPa 0 mm - 458 W/m² -
1787860959 35° C 29% 1017.6 hPa 0 mm - 981 W/m² -
1787860653 35° C 29% 1017.4 hPa 0 mm - 815 W/m² -

* Rain latest hour (hover to see other rain measurements)
** Current wind speed in m/s (hover to see current wind gust speed)